Time;durP1;ratioP1;P1;durP2;ratioP2;P2;SDS_P1;SDS_P2;PMS_P1;PMS_P2;Temp;Humidity;BMP_temperature;BMP_pressure;BME280_temperature;BME280_humidity;BME280_pressure;Samples;Min_cycle;Max_cycle;Signal;HPM_P1;HPM_P2
2020/12/14 00:00:11;;;;;;;14.68;6.80;;;;;;;27.02;29.99;96270.63;4962905;28;20484;-36
2020/12/14 00:02:38;;;;;;;11.90;6.65;;;;;;;27.03;29.99;96273.16;4952433;28;20038;-35
2020/12/14 00:05:03;;;;;;;15.13;6.88;;;;;;;27.02;30.18;96247.81;4951001;28;20046;-33
2020/12/14 00:07:29;;;;;;;14.90;6.68;;;;;;;27.00;30.18;96237.38;4946717;28;20043;-36
2020/12/14 00:09:54;;;;;;;13.30;6.70;;;;;;;27.03;30.10;96231.06;4947331;28;20038;-34
2020/12/14 00:12:20;;;;;;;13.23;6.60;;;;;;;27.04;29.99;96230.13;4950431;28;20412;-34
2020/12/14 00:14:45;;;;;;;12.68;6.25;;;;;;;27.02;29.86;96216.25;4952509;28;20046;-35
2020/12/14 00:17:11;;;;;;;12.48;6.05;;;;;;;27.03;29.93;96204.78;4965228;28;20090;-35
2020/12/14 00:19:37;;;;;;;11.23;5.90;;;;;;;27.04;29.99;96210.91;4952971;28;20507;-35
2020/12/14 00:22:03;;;;;;;10.90;5.60;;;;;;;27.02;30.09;96210.13;4951928;28;20051;-35
2020/12/14 00:24:29;;;;;;;13.07;6.05;;;;;;;27.02;29.97;96213.63;4952461;28;20564;-34
2020/12/14 00:26:55;;;;;;;10.80;6.15;;;;;;;27.00;30.10;96215.50;4948329;28;20501;-37
2020/12/14 00:29:21;;;;;;;10.32;5.32;;;;;;;27.03;29.99;96215.31;4948757;28;20051;-33
2020/12/14 00:31:51;;;;;;;12.48;5.50;;;;;;;27.02;30.04;96208.38;4949810;28;20118;-36
2020/12/14 00:34:16;;;;;;;10.52;5.90;;;;;;;27.01;30.01;96204.06;4953619;28;20045;-34
2020/12/14 00:36:43;;;;;;;12.40;5.63;;;;;;;27.02;30.01;96215.41;4951880;28;20445;-37
2020/12/14 00:39:09;;;;;;;13.73;5.60;;;;;;;27.01;30.02;96217.22;4949321;28;20077;-36
2020/12/14 00:41:35;;;;;;;10.85;5.38;;;;;;;27.02;29.91;96224.16;4958756;28;20500;-38
2020/12/14 00:44:00;;;;;;;10.43;4.97;;;;;;;27.02;29.90;96229.41;4947029;28;20047;-36
2020/12/14 00:46:26;;;;;;;10.25;5.03;;;;;;;27.02;30.00;96233.81;4951412;28;20035;-36
2020/12/14 00:48:51;;;;;;;10.38;5.38;;;;;;;27.03;29.81;96241.59;4949397;28;20050;-37
2020/12/14 00:51:17;;;;;;;9.40;5.07;;;;;;;27.01;29.83;96240.88;4944872;28;20054;-37
2020/12/14 00:53:42;;;;;;;10.18;5.15;;;;;;;27.02;29.71;96239.06;4950221;28;20039;-39
2020/12/14 00:56:08;;;;;;;10.55;5.35;;;;;;;27.00;29.95;96242.66;4949006;28;20108;-35
2020/12/14 00:58:34;;;;;;;9.40;4.88;;;;;;;26.98;29.86;96243.69;4949425;28;20046;-36
2020/12/14 01:01:00;;;;;;;9.13;4.72;;;;;;;26.97;29.99;96245.47;4946453;28;20144;-33
2020/12/14 01:03:26;;;;;;;9.05;4.53;;;;;;;26.98;29.91;96243.69;4950072;28;20046;-36
2020/12/14 01:05:52;;;;;;;9.48;4.88;;;;;;;26.97;29.92;96247.28;4947563;28;20479;-37
2020/12/14 01:08:20;;;;;;;7.93;4.47;;;;;;;26.98;29.98;96246.31;4955430;28;20035;-38
2020/12/14 01:10:45;;;;;;;8.98;4.88;;;;;;;26.95;29.88;96241.25;4949675;28;20043;-36
2020/12/14 01:13:11;;;;;;;8.45;4.38;;;;;;;26.98;30.04;96238.44;4965111;28;20046;-35
2020/12/14 01:15:37;;;;;;;8.43;4.20;;;;;;;26.96;29.92;96248.22;4953054;28;20042;-33
2020/12/14 01:18:02;;;;;;;11.63;4.70;;;;;;;26.99;29.83;96250.63;4954249;28;20634;-35
2020/12/14 01:20:28;;;;;;;9.93;4.40;;;;;;;26.98;29.78;96255.06;4950132;28;20727;-36
2020/12/14 01:22:53;;;;;;;9.02;4.15;;;;;;;26.99;29.85;96240.13;4952306;28;20662;-36
2020/12/14 01:25:19;;;;;;;6.57;4.00;;;;;;;26.99;29.93;96246.22;4948822;28;20144;-36
2020/12/14 01:27:45;;;;;;;10.07;4.47;;;;;;;26.97;29.74;96237.59;4949722;28;20051;-34
2020/12/14 01:30:10;;;;;;;7.28;4.07;;;;;;;26.99;29.70;96237.50;4944903;28;20484;-35
2020/12/14 01:32:36;;;;;;;7.47;4.00;;;;;;;26.99;29.89;96234.84;4961873;28;20093;-36
2020/12/14 01:35:01;;;;;;;8.95;4.30;;;;;;;26.98;29.94;96233.19;4951316;28;20342;-41
2020/12/14 01:37:27;;;;;;;8.48;4.47;;;;;;;26.97;29.89;96231.50;4951480;28;20042;-39
2020/12/14 01:39:53;;;;;;;6.45;3.67;;;;;;;26.97;29.74;96228.88;4943246;28;20114;-33
2020/12/14 01:42:22;;;;;;;12.98;3.90;;;;;;;26.96;29.90;96230.66;4946259;28;20043;-38
2020/12/14 01:44:50;;;;;;;6.38;3.58;;;;;;;26.96;29.88;96230.66;4948880;28;20047;-37
2020/12/14 01:47:27;;;;;;;9.52;4.72;;;;;;;26.96;29.74;96229.81;4963221;28;20051;-38
2020/12/14 01:49:53;;;;;;;7.35;3.45;;;;;;;26.95;29.86;96228.97;4947259;28;20038;-39
2020/12/14 01:52:20;;;;;;;6.45;3.67;;;;;;;26.94;29.73;96239.56;4948504;28;20109;-35
2020/12/14 01:54:45;;;;;;;8.13;3.67;;;;;;;26.91;29.94;96237.13;4949442;28;20042;-32
2020/12/14 01:57:11;;;;;;;6.47;3.70;;;;;;;26.94;29.90;96242.19;4934953;28;20038;-32
2020/12/14 01:59:36;;;;;;;7.68;3.80;;;;;;;26.94;29.85;96258.84;4946703;28;20167;-39
2020/12/14 02:02:02;;;;;;;6.18;3.55;;;;;;;26.93;29.88;96256.28;4950709;28;20936;-34
2020/12/14 02:04:29;;;;;;;6.63;3.78;;;;;;;26.94;29.75;96253.59;4950623;28;20170;-33
2020/12/14 02:06:54;;;;;;;9.48;3.38;;;;;;;26.95;29.79;96254.41;4948813;28;20047;-33
2020/12/14 02:09:20;;;;;;;7.80;3.60;;;;;;;26.91;29.77;96237.13;4952614;28;20058;-37
2020/12/14 02:11:45;;;;;;;5.78;3.13;;;;;;;26.90;29.59;96231.03;4950127;28;20047;-33
2020/12/14 02:14:12;;;;;;;5.85;3.13;;;;;;;26.88;29.76;96223.25;4963714;28;20078;-36
2020/12/14 02:16:37;;;;;;;6.28;3.50;;;;;;;26.87;29.75;96232.09;4953437;28;20063;-35
2020/12/14 02:19:03;;;;;;;8.07;3.45;;;;;;;26.87;29.78;96237.34;4949232;28;20035;-38
2020/12/14 02:21:29;;;;;;;6.75;3.22;;;;;;;26.85;29.80;96228.69;4953532;28;20035;-39
2020/12/14 02:23:55;;;;;;;5.65;3.60;;;;;;;26.86;30.13;96235.63;4951366;28;20058;-36
2020/12/14 02:26:21;;;;;;;4.97;2.80;;;;;;;26.86;29.89;96240.06;4950258;28;20644;-36
2020/12/14 02:28:47;;;;;;;7.13;3.10;;;;;;;26.85;29.63;96236.59;4951099;28;20042;-37
2020/12/14 02:31:13;;;;;;;5.22;3.20;;;;;;;26.84;29.68;96229.66;4950898;28;20154;-37
2020/12/14 02:33:38;;;;;;;4.88;3.00;;;;;;;26.84;29.85;96234.91;4948551;28;20461;-35
2020/12/14 02:36:04;;;;;;;5.75;3.10;;;;;;;26.84;29.69;96229.66;4965825;28;20038;-34
2020/12/14 02:38:30;;;;;;;5.60;3.00;;;;;;;26.84;29.69;96226.16;4950265;28;20057;-35
2020/12/14 02:40:55;;;;;;;4.57;3.00;;;;;;;26.82;29.88;96223.66;4943401;28;20531;-35
2020/12/14 02:43:21;;;;;;;6.38;2.90;;;;;;;26.82;29.67;96222.81;4961732;28;20047;-36
2020/12/14 02:45:47;;;;;;;5.65;2.67;;;;;;;26.82;29.72;96222.81;4951959;28;20043;-39
2020/12/14 02:48:13;;;;;;;5.55;2.85;;;;;;;26.82;29.62;96222.81;4951785;28;20043;-34
2020/12/14 02:50:39;;;;;;;4.72;2.85;;;;;;;26.80;29.67;96219.44;4944023;28;20050;-34
2020/12/14 02:53:05;;;;;;;5.80;2.95;;;;;;;26.79;29.68;96213.34;4952749;28;20097;-36
2020/12/14 02:55:34;;;;;;;4.88;2.83;;;;;;;26.80;29.71;96220.28;4950608;28;20047;-33
2020/12/14 02:58:00;;;;;;;4.80;2.80;;;;;;;26.81;29.71;96208.00;4947008;28;20113;-35
2020/12/14 03:00:25;;;;;;;6.72;2.80;;;;;;;26.81;29.67;96200.94;4944464;28;20057;-33
2020/12/14 03:02:51;;;;;;;5.63;2.70;;;;;;;26.80;29.72;96199.25;4944415;28;20042;-34
2020/12/14 03:05:17;;;;;;;6.05;2.60;;;;;;;26.79;29.58;96192.31;4946158;28;20054;-34
2020/12/14 03:07:43;;;;;;;4.47;2.40;;;;;;;26.79;29.58;96192.31;4949364;28;20046;-32
2020/12/14 03:10:09;;;;;;;4.55;2.60;;;;;;;26.78;29.60;96190.66;4947678;28;20034;-32
2020/12/14 03:12:35;;;;;;;6.25;2.53;;;;;;;26.79;29.67;96196.72;4952046;28;20058;-34
2020/12/14 03:15:01;;;;;;;4.18;2.63;;;;;;;26.79;29.53;96192.31;4953492;28;20054;-31
2020/12/14 03:17:26;;;;;;;4.43;2.85;;;;;;;26.79;29.52;96189.69;4944710;28;20049;-33
2020/12/14 03:19:52;;;;;;;5.47;2.85;;;;;;;26.79;29.55;96188.84;4945218;28;20089;-37
2020/12/14 03:22:18;;;;;;;4.70;2.50;;;;;;;26.79;29.58;96186.22;4951494;28;20070;-34
2020/12/14 03:24:44;;;;;;;5.40;2.28;;;;;;;26.67;29.65;96164.22;4947931;28;21188;-35
2020/12/14 03:27:09;;;;;;;4.93;2.85;;;;;;;26.79;29.57;96176.56;4943853;28;20046;-36
2020/12/14 03:29:34;;;;;;;5.28;2.60;;;;;;;26.78;29.52;96182.75;4966311;28;20080;-36
2020/12/14 03:32:00;;;;;;;6.00;2.55;;;;;;;26.77;29.45;96182.84;4950250;28;20042;-36
2020/12/14 03:34:25;;;;;;;3.88;2.20;;;;;;;26.77;29.42;96188.94;4947211;28;20105;-37
2020/12/14 03:36:51;;;;;;;4.85;2.67;;;;;;;26.78;29.43;96185.38;4947042;28;21276;-37
2020/12/14 03:39:17;;;;;;;3.13;1.98;;;;;;;26.77;29.36;96183.69;4942367;28;20059;-35
2020/12/14 03:41:43;;;;;;;3.33;2.00;;;;;;;26.76;29.56;96175.94;4945928;28;20057;-39
2020/12/14 03:44:08;;;;;;;3.67;2.28;;;;;;;26.77;29.35;96185.47;4947697;28;20677;-36
2020/12/14 03:46:35;;;;;;;4.10;2.28;;;;;;;26.76;29.46;96187.25;4947348;28;20039;-35
2020/12/14 03:49:01;;;;;;;3.92;2.30;;;;;;;26.75;29.36;96185.59;4961935;28;20120;-38
2020/12/14 03:51:27;;;;;;;3.65;2.33;;;;;;;26.77;29.46;96188.13;4950821;28;20576;-39
2020/12/14 03:53:53;;;;;;;4.63;1.90;;;;;;;26.74;29.52;96192.63;4957515;28;20046;-36
2020/12/14 03:56:19;;;;;;;4.03;2.30;;;;;;;26.75;29.39;96188.22;4948700;28;20067;-35
2020/12/14 03:58:45;;;;;;;3.08;2.20;;;;;;;26.76;29.33;96179.38;4947953;28;20046;-34
2020/12/14 04:01:12;;;;;;;3.80;2.22;;;;;;;26.75;29.34;96190.84;4944881;28;20170;-35
2020/12/14 04:03:38;;;;;;;3.42;2.05;;;;;;;26.76;29.28;96184.63;4949593;28;20110;-34
2020/12/14 04:06:04;;;;;;;3.45;2.20;;;;;;;26.76;29.45;96182.00;4947911;28;20105;-37
2020/12/14 04:08:30;;;;;;;4.68;2.40;;;;;;;26.76;29.32;96181.19;4948346;28;20530;-32
2020/12/14 04:10:55;;;;;;;6.50;2.17;;;;;;;26.74;29.29;96182.09;4949341;28;20043;-35
2020/12/14 04:13:21;;;;;;;4.18;2.00;;;;;;;26.75;29.31;96190.84;4950399;28;20046;-34
2020/12/14 04:15:47;;;;;;;4.80;1.90;;;;;;;26.73;29.31;96192.72;4948769;28;20061;-37
2020/12/14 04:18:13;;;;;;;3.58;2.00;;;;;;;26.74;29.47;96192.63;4948643;28;20299;-37
2020/12/14 04:20:39;;;;;;;2.75;2.03;;;;;;;26.73;29.51;96192.72;4949222;28;20054;-37
2020/12/14 04:23:04;;;;;;;3.60;1.98;;;;;;;26.73;29.42;96197.97;4953646;28;20120;-36
2020/12/14 04:25:30;;;;;;;3.13;2.10;;;;;;;26.73;29.20;96208.47;4947596;28;20078;-32
2020/12/14 04:27:59;;;;;;;4.53;2.08;;;;;;;26.72;29.39;96201.56;4945677;28;22502;-37
2020/12/14 04:30:26;;;;;;;3.38;1.88;;;;;;;26.72;29.33;96201.56;4944619;28;20042;-35
2020/12/14 04:32:52;;;;;;;4.43;2.30;;;;;;;26.69;29.39;96197.34;4958083;28;20069;-35
2020/12/14 04:35:18;;;;;;;3.42;1.90;;;;;;;26.72;29.38;96201.56;4951688;28;22538;-35
2020/12/14 04:37:44;;;;;;;4.90;1.80;;;;;;;26.70;29.45;96203.44;4951703;28;20053;-38
2020/12/14 04:40:10;;;;;;;3.30;2.03;;;;;;;26.71;29.32;96192.00;4949371;28;20078;-35
2020/12/14 04:42:36;;;;;;;3.55;1.95;;;;;;;26.57;29.44;96179.75;4950654;28;20051;-37
2020/12/14 04:45:02;;;;;;;3.83;1.85;;;;;;;26.69;29.51;96186.00;4962097;28;20136;-35
2020/12/14 04:47:27;;;;;;;3.42;2.10;;;;;;;26.69;29.35;96191.25;4956940;28;20076;-36
2020/12/14 04:49:53;;;;;;;4.55;1.90;;;;;;;26.69;29.47;96191.25;4965857;28;20055;-39
2020/12/14 04:52:19;;;;;;;3.40;2.00;;;;;;;26.67;29.37;96187.88;4966445;28;20513;-38
2020/12/14 04:54:48;;;;;;;3.60;1.90;;;;;;;26.68;29.27;96189.56;4964663;28;20053;-38
2020/12/14 04:57:14;;;;;;;4.55;2.00;;;;;;;26.67;29.43;96182.63;4949804;28;20060;-33
2020/12/14 04:59:40;;;;;;;2.95;1.60;;;;;;;26.66;29.46;96176.50;4955576;28;20707;-33
2020/12/14 05:02:07;;;;;;;3.08;1.55;;;;;;;26.66;29.29;96175.69;4960997;28;20035;-37
2020/12/14 05:04:36;;;;;;;2.90;1.83;;;;;;;26.65;29.37;96174.00;4948886;28;20462;-36
2020/12/14 05:07:01;;;;;;;3.05;1.80;;;;;;;26.66;29.40;96180.94;4947296;28;20030;-35
2020/12/14 05:09:27;;;;;;;3.75;2.00;;;;;;;26.64;29.45;96181.03;4968947;28;20050;-37
2020/12/14 05:11:52;;;;;;;2.47;1.75;;;;;;;26.63;29.30;96176.72;4946848;28;20153;-35
2020/12/14 05:14:22;;;;;;;2.70;1.80;;;;;;;26.63;29.33;96187.25;4952905;28;20053;-34
2020/12/14 05:16:48;;;;;;;2.45;1.60;;;;;;;26.60;29.43;96180.41;4951792;28;20498;-34
2020/12/14 05:19:23;;;;;;;1.80;1.25;;;;;;;26.61;29.45;96179.47;4953135;28;20154;-36
2020/12/14 05:21:49;;;;;;;2.72;1.60;;;;;;;26.59;29.53;96180.50;4947380;28;20058;-34
2020/12/14 05:24:22;;;;;;;2.85;1.75;;;;;;;26.58;29.35;96187.53;4954316;28;20042;-35
2020/12/14 05:26:48;;;;;;;3.30;1.45;;;;;;;26.60;29.52;96190.06;4948900;28;20046;-37
2020/12/14 05:29:18;;;;;;;2.80;1.40;;;;;;;26.58;29.33;96184.91;4962597;28;20050;-35
2020/12/14 05:32:04;;;;;;;2.63;1.63;;;;;;;26.58;29.41;96184.91;4949622;28;20085;-34
2020/12/14 05:34:33;;;;;;;1.77;1.23;;;;;;;26.58;29.40;96200.69;4948749;28;20031;-35
2020/12/14 05:37:00;;;;;;;2.20;1.33;;;;;;;26.58;29.49;96195.41;4950237;28;20509;-35
2020/12/14 05:39:29;;;;;;;1.92;1.40;;;;;;;26.56;29.46;96202.56;4951225;28;20526;-39
2020/12/14 05:42:06;;;;;;;3.90;1.67;;;;;;;26.56;29.53;96192.06;4946199;28;20129;-38
2020/12/14 05:44:32;;;;;;;1.42;1.10;;;;;;;26.57;29.52;96191.13;4964599;28;20038;-41
2020/12/14 05:46:58;;;;;;;2.85;1.25;;;;;;;26.57;29.46;96193.75;4951445;28;20039;-35
2020/12/14 05:49:23;;;;;;;2.08;1.10;;;;;;;26.58;29.41;96203.31;4961492;28;20046;-34
2020/12/14 05:51:49;;;;;;;2.13;1.50;;;;;;;26.58;29.39;96205.09;4950254;28;20054;-34
2020/12/14 05:54:14;;;;;;;2.67;1.70;;;;;;;26.57;29.44;96204.25;4948361;28;20038;-33
2020/12/14 05:56:40;;;;;;;2.03;1.38;;;;;;;26.58;29.44;96192.78;4964398;28;20039;-34
2020/12/14 05:59:05;;;;;;;2.08;1.35;;;;;;;26.58;29.53;96205.09;4930965;28;20505;-30
2020/12/14 06:01:31;;;;;;;2.42;1.20;;;;;;;26.58;29.37;96200.69;4948494;28;20129;-33
2020/12/14 06:03:57;;;;;;;2.08;1.50;;;;;;;26.57;29.36;96193.75;4952362;28;20611;-34
2020/12/14 06:06:22;;;;;;;2.55;1.70;;;;;;;26.56;28.80;96205.22;4936366;28;20062;-33
2020/12/14 06:09:04;;;;;;;1.77;1.23;;;;;;;26.55;29.25;96203.50;4964066;28;20042;-37
2020/12/14 06:11:30;;;;;;;;;;;;;;;26.55;29.55;96202.69;4961563;28;20074;-34
2020/12/14 06:13:58;;;;;;;2.42;1.40;;;;;;;26.54;29.70;96198.38;4965147;28;20137;-34
2020/12/14 06:16:24;;;;;;;1.45;1.20;;;;;;;26.54;29.60;96188.69;4954071;28;20121;-34
2020/12/14 06:18:50;;;;;;;2.88;1.35;;;;;;;26.55;29.65;96198.25;4950572;28;20057;-33
2020/12/14 06:21:42;;;;;;;2.10;1.02;;;;;;;26.57;29.63;96188.50;4946371;28;20051;-34
2020/12/14 06:24:17;;;;;;;2.38;1.50;;;;;;;26.58;29.54;96190.16;4964036;28;20018;-36
2020/12/14 06:26:43;;;;;;;2.53;1.27;;;;;;;26.58;29.68;96200.69;4946310;28;20044;-35
2020/12/14 06:29:09;;;;;;;2.53;1.30;;;;;;;26.58;29.60;96191.97;4945683;28;20082;-35
2020/12/14 06:31:38;;;;;;;1.83;1.40;;;;;;;26.58;29.52;96195.41;4947469;28;20082;-35
2020/12/14 06:34:05;;;;;;;1.40;1.13;;;;;;;26.58;29.53;96205.94;4950462;28;21831;-34
2020/12/14 06:36:38;;;;;;;1.67;1.27;;;;;;;26.59;29.60;96201.53;4951033;28;20177;-36
2020/12/14 06:39:03;;;;;;;3.97;1.92;;;;;;;26.55;28.50;96206.13;4945523;28;20038;-35
2020/12/14 06:41:30;;;;;;;1.67;1.45;;;;;;;26.54;28.49;96203.63;4945337;28;20050;-33
2020/12/14 06:44:06;;;;;;;2.40;1.30;;;;;;;26.52;29.13;96200.22;4951391;28;20043;-35
2020/12/14 06:46:34;;;;;;;3.70;1.48;;;;;;;26.50;29.51;96205.59;4947126;28;20207;-36
2020/12/14 06:49:00;;;;;;;1.90;1.40;;;;;;;26.50;29.69;96208.22;4951936;28;20062;-37
2020/12/14 06:51:27;;;;;;;3.00;1.40;;;;;;;26.50;29.65;96204.75;4949380;28;20536;-39
2020/12/14 06:53:53;;;;;;;2.05;1.40;;;;;;;26.49;29.61;96203.91;4948385;28;20050;-37
2020/12/14 06:56:27;;;;;;;2.10;1.35;;;;;;;26.50;29.64;96210.03;4952044;28;20186;-37
2020/12/14 06:58:53;;;;;;;2.00;1.20;;;;;;;26.50;29.57;96210.03;4948125;28;20119;-39
2020/12/14 07:01:33;;;;;;;1.83;1.10;;;;;;;26.51;29.64;96217.81;4943781;28;20186;-38
2020/12/14 07:04:00;;;;;;;1.88;1.30;;;;;;;26.51;29.58;96209.94;4945733;28;20105;-35
2020/12/14 07:06:26;;;;;;;1.42;0.98;;;;;;;26.52;29.66;96216.84;4945784;28;20039;-32
2020/12/14 07:08:52;;;;;;;2.10;1.48;;;;;;;26.51;29.62;96211.69;4952522;28;20041;-33
2020/12/14 07:11:18;;;;;;;1.63;1.17;;;;;;;26.52;29.73;96216.84;4951756;28;20051;-36
2020/12/14 07:13:44;;;;;;;2.08;1.33;;;;;;;26.51;29.73;96217.81;4947205;28;20073;-33
2020/12/14 07:16:10;;;;;;;2.15;1.30;;;;;;;26.50;29.80;96229.22;4945014;28;20134;-34
2020/12/14 07:18:37;;;;;;;2.03;1.30;;;;;;;26.48;29.86;96228.50;4950072;28;21072;-35
2020/12/14 07:21:08;;;;;;;1.38;1.13;;;;;;;26.47;29.87;96227.66;4945306;28;20038;-38
2020/12/14 07:23:35;;;;;;;2.03;1.15;;;;;;;26.47;29.89;96235.53;4945293;28;20790;-35
2020/12/14 07:26:01;;;;;;;1.55;1.20;;;;;;;26.48;29.94;96231.13;4948259;28;20030;-33
2020/12/14 07:28:53;;;;;;;1.60;1.35;;;;;;;26.48;29.85;96237.22;4962801;28;21005;-33
2020/12/14 07:31:20;;;;;;;2.63;1.50;;;;;;;26.47;29.85;96239.97;4943749;28;20638;-37
2020/12/14 07:33:53;;;;;;;1.67;1.35;;;;;;;26.42;29.81;96234.13;4949338;28;20046;-34
2020/12/14 07:36:19;;;;;;;7.97;1.35;;;;;;;26.44;29.79;96240.16;4947346;28;20039;-34
2020/12/14 07:38:49;;;;;;;2.40;1.70;;;;;;;26.43;29.35;96234.03;4951149;28;20057;-36
2020/12/14 07:41:16;;;;;;;5.78;1.30;;;;;;;26.39;29.76;96232.56;4945204;28;20098;-37
2020/12/14 07:43:54;;;;;;;2.65;1.40;;;;;;;26.40;29.65;96233.41;4965830;28;20090;-36
2020/12/14 07:46:23;;;;;;;4.97;1.77;;;;;;;26.35;29.62;96234.56;4946598;28;20731;-33
2020/12/14 07:48:53;;;;;;;3.75;1.50;;;;;;;26.38;30.01;96223.00;4948861;28;21535;-34
2020/12/14 07:51:19;;;;;;;2.42;1.30;;;;;;;26.42;29.93;96228.88;4949297;28;20693;-36
2020/12/14 07:53:45;;;;;;;10.68;3.30;;;;;;;26.43;27.38;96227.97;4949872;28;20042;-33
2020/12/14 07:56:11;;;;;;;10.15;4.38;;;;;;;26.42;25.78;96231.50;4950256;28;20548;-34
2020/12/14 07:58:46;;;;;;;5.95;3.80;;;;;;;26.34;25.21;96227.63;4948460;28;20047;-36
2020/12/14 08:01:16;;;;;;;9.75;4.05;;;;;;;26.28;25.33;96233.25;4951884;28;20053;-36
2020/12/14 08:03:42;;;;;;;11.63;4.40;;;;;;;26.20;25.42;96232.88;4948750;28;20810;-37
2020/12/14 08:06:17;;;;;;;8.10;3.90;;;;;;;26.10;25.36;96241.31;4951420;28;20043;-33
2020/12/14 08:08:47;;;;;;;10.40;3.95;;;;;;;25.98;25.73;96238.63;4950619;28;20054;-35
2020/12/14 08:11:13;;;;;;;6.35;4.28;;;;;;;25.88;25.72;96239.22;4952628;28;20042;-33
2020/12/14 08:13:39;;;;;;;8.15;3.80;;;;;;;25.80;25.72;96239.69;4957013;28;20070;-32
2020/12/14 08:16:05;;;;;;;9.55;4.40;;;;;;;25.76;25.72;96232.09;4951263;28;20039;-33
2020/12/14 08:18:31;;;;;;;5.03;4.15;;;;;;;25.72;25.81;96230.59;4946179;28;20051;-33
2020/12/14 08:20:57;;;;;;;7.72;4.07;;;;;;;25.61;25.82;96233.88;4936091;28;20580;-33
2020/12/14 08:23:23;;;;;;;10.07;4.30;;;;;;;25.53;26.16;96240.44;4951277;28;20051;-36
2020/12/14 08:25:50;;;;;;;9.02;3.78;;;;;;;25.51;26.09;96233.59;4954663;28;20519;-33
2020/12/14 08:28:16;;;;;;;8.13;4.15;;;;;;;25.49;25.97;96241.53;4950653;28;20058;-36
2020/12/14 08:30:42;;;;;;;10.65;4.10;;;;;;;25.47;25.89;96240.78;4949345;28;20261;-36
2020/12/14 08:33:12;;;;;;;9.93;3.78;;;;;;;25.45;25.96;96232.19;4950421;28;20109;-38
2020/12/14 08:35:45;;;;;;;8.13;4.00;;;;;;;25.44;25.54;96241.81;4950038;28;20034;-37
2020/12/14 08:38:15;;;;;;;5.38;4.10;;;;;;;25.42;25.47;96237.59;4950278;28;22068;-34
2020/12/14 08:40:51;;;;;;;7.75;4.20;;;;;;;25.39;25.50;96240.41;4947889;28;20118;-36
2020/12/14 08:43:17;;;;;;;4.25;2.03;;;;;;;25.42;28.84;96245.47;4952096;28;20043;-33
2020/12/14 08:46:03;;;;;;;7.03;2.13;;;;;;;25.50;29.18;96251.09;4950425;28;20039;-35
2020/12/14 08:48:30;;;;;;;4.25;1.80;;;;;;;25.62;29.49;96248.72;4955059;28;20042;-36
2020/12/14 08:51:28;;;;;;;4.10;2.15;;;;;;;25.75;29.45;96247.03;4957213;28;20098;-35
2020/12/14 08:53:55;;;;;;;3.35;1.60;;;;;;;25.85;29.28;96249.06;4955917;28;20042;-36
2020/12/14 08:56:22;;;;;;;3.78;1.75;;;;;;;25.92;29.24;96261.72;4952230;28;20058;-35
2020/12/14 08:58:58;;;;;;;3.00;1.70;;;;;;;26.02;29.18;96267.25;4967081;28;20046;-36
2020/12/14 09:01:26;;;;;;;2.80;1.50;;;;;;;26.10;29.30;96270.22;4951109;28;20388;-35
2020/12/14 09:03:56;;;;;;;4.47;1.52;;;;;;;26.16;29.28;96265.53;4949873;28;20669;-33
2020/12/14 09:06:23;;;;;;;3.92;1.48;;;;;;;26.22;29.16;96262.50;4949015;28;20046;-36
2020/12/14 09:09:15;;;;;;;4.10;1.50;;;;;;;26.32;29.03;96270.69;4953822;28;20093;-35
2020/12/14 09:11:46;;;;;;;2.78;1.73;;;;;;;26.38;28.99;96261.56;4952659;28;20050;-35
2020/12/14 09:14:26;;;;;;;9.68;5.63;;;;;;;26.31;23.03;96264.56;4948494;28;20038;-46
2020/12/14 09:16:56;;;;;;;13.43;7.13;;;;;;;25.94;20.79;96265.06;4950209;28;20521;-34
2020/12/14 09:19:22;;;;;;;18.42;7.28;;;;;;;25.40;20.20;96268.34;4968567;28;20039;-36
2020/12/14 09:21:48;;;;;;;17.73;6.97;;;;;;;24.88;20.99;96270.47;4949596;28;20678;-33
2020/12/14 09:24:18;;;;;;;10.27;5.80;;;;;;;24.53;22.38;96276.75;4951737;28;20057;-34
2020/12/14 09:26:44;;;;;;;12.23;5.28;;;;;;;24.36;23.38;96269.81;4951515;28;20101;-36
2020/12/14 09:29:10;;;;;;;10.10;4.75;;;;;;;24.38;24.12;96270.59;4952527;28;20763;-33
2020/12/14 09:31:37;;;;;;;12.82;3.97;;;;;;;24.47;24.94;96272.69;4949649;28;20054;-35
2020/12/14 09:34:02;;;;;;;15.73;4.18;;;;;;;24.60;25.39;96272.00;4956540;28;20054;-36
2020/12/14 09:36:29;;;;;;;8.80;3.38;;;;;;;24.73;25.71;96273.00;4950913;28;20448;-34
2020/12/14 09:38:55;;;;;;;11.23;3.58;;;;;;;24.87;26.36;96274.00;4949602;28;20038;-36
2020/12/14 09:41:24;;;;;;;8.07;3.10;;;;;;;25.00;26.21;96264.50;4953990;28;20552;-37
2020/12/14 09:43:50;;;;;;;9.68;2.90;;;;;;;25.15;26.47;96272.41;4956676;28;20039;-35
2020/12/14 09:46:16;;;;;;;7.07;3.20;;;;;;;25.23;26.49;96267.56;4953128;28;20046;-36
2020/12/14 09:48:42;;;;;;;8.60;3.05;;;;;;;25.37;26.39;96272.00;4951881;28;20059;-37
2020/12/14 09:51:07;;;;;;;6.30;3.05;;;;;;;25.46;26.47;96273.19;4954611;28;20038;-36
2020/12/14 09:53:33;;;;;;;9.63;3.05;;;;;;;25.55;26.56;96277.91;4952205;28;20039;-35
2020/12/14 09:55:59;;;;;;;9.32;3.15;;;;;;;25.62;26.73;96277.56;4949464;28;20386;-39
2020/12/14 09:58:26;;;;;;;7.65;2.97;;;;;;;25.66;26.73;96272.03;4950099;28;20031;-35
2020/12/14 10:00:52;;;;;;;14.70;3.20;;;;;;;25.73;26.80;96264.63;4947997;28;20085;-38
2020/12/14 10:03:18;;;;;;;9.25;3.45;;;;;;;25.75;26.60;96262.75;4947767;28;20047;-35
2020/12/14 10:05:47;;;;;;;24.40;3.40;;;;;;;25.77;26.85;96258.25;4950597;28;20043;-36
2020/12/14 10:08:16;;;;;;;8.35;3.08;;;;;;;25.79;26.97;96261.63;4951240;28;20051;-38
2020/12/14 10:10:44;;;;;;;13.82;3.75;;;;;;;25.81;27.18;96261.53;4951477;28;20125;-34
2020/12/14 10:13:10;;;;;;;21.77;5.72;;;;;;;25.79;25.85;96264.25;4970494;28;20766;-36
2020/12/14 10:15:36;;;;;;;14.57;5.55;;;;;;;25.71;24.98;96258.66;4955681;28;20045;-36
2020/12/14 10:18:01;;;;;;;19.67;5.85;;;;;;;25.56;24.66;96271.72;4954185;28;20031;-35
2020/12/14 10:20:28;;;;;;;18.58;5.57;;;;;;;25.45;24.51;96261.03;4950601;28;20117;-35
2020/12/14 10:22:54;;;;;;;12.80;4.80;;;;;;;25.30;24.51;96249.69;4952626;28;20066;-36
2020/12/14 10:25:20;;;;;;;12.75;4.65;;;;;;;25.24;25.85;96256.13;4952978;28;20130;-33
2020/12/14 10:27:46;;;;;;;13.02;4.28;;;;;;;25.28;26.83;96247.13;4955520;28;20046;-36
2020/12/14 10:30:13;;;;;;;16.20;4.20;;;;;;;25.36;27.01;96256.34;4952099;28;20093;-34
2020/12/14 10:32:39;;;;;;;13.32;4.85;;;;;;;25.45;27.41;96263.66;4950699;28;20031;-36
2020/12/14 10:35:04;;;;;;;18.05;4.05;;;;;;;25.59;27.38;96254.13;4952686;28;20046;-35
2020/12/14 10:37:31;;;;;;;10.93;4.43;;;;;;;25.41;28.32;96254.28;4948530;28;20074;-37
2020/12/14 10:39:58;;;;;;;9.50;3.58;;;;;;;25.11;29.30;96250.78;4951518;28;20043;-34
2020/12/14 10:42:23;;;;;;;8.65;4.00;;;;;;;24.91;29.01;96247.53;4950737;28;20046;-33
2020/12/14 10:44:49;;;;;;;9.65;3.95;;;;;;;24.87;29.62;96242.56;4951053;28;20048;-31
2020/12/14 10:47:15;;;;;;;11.00;4.10;;;;;;;24.93;29.52;96229.09;4950186;28;20051;-32
2020/12/14 10:49:41;;;;;;;13.93;3.90;;;;;;;25.02;29.62;96233.78;4950273;28;20059;-33
2020/12/14 10:52:07;;;;;;;12.15;3.80;;;;;;;25.16;29.64;96238.22;4963167;28;20053;-34
2020/12/14 10:54:34;;;;;;;10.90;3.83;;;;;;;25.36;28.95;96227.50;4945272;28;20058;-31
2020/12/14 10:57:01;;;;;;;9.75;3.58;;;;;;;25.51;28.54;96231.78;4947815;28;20050;-36
2020/12/14 10:59:27;;;;;;;11.43;3.92;;;;;;;25.68;28.50;96232.56;4953540;28;20043;-33
2020/12/14 11:01:52;;;;;;;9.68;3.70;;;;;;;25.83;28.16;96225.53;4957834;28;20050;-35
2020/12/14 11:04:19;;;;;;;8.45;3.30;;;;;;;25.97;28.43;96222.03;4961244;28;20051;-34
2020/12/14 11:06:45;;;;;;;7.00;3.33;;;;;;;26.07;27.64;96217.91;4962030;28;20126;-36
2020/12/14 11:09:11;;;;;;;11.48;3.90;;;;;;;26.16;27.52;96199.88;4959442;28;20111;-31
2020/12/14 11:11:37;;;;;;;11.48;3.83;;;;;;;26.25;27.38;96217.66;4956455;28;20670;-33
2020/12/14 11:14:03;;;;;;;14.65;3.17;;;;;;;26.34;27.83;96230.25;4964374;28;20078;-37
2020/12/14 11:16:29;;;;;;;8.00;3.47;;;;;;;26.41;27.44;96214.06;4958011;28;20033;-38
2020/12/14 11:18:56;;;;;;;11.60;3.38;;;;;;;26.47;27.70;96225.03;4958726;28;20198;-38
2020/12/14 11:21:22;;;;;;;8.07;3.20;;;;;;;26.50;27.67;96212.66;4959205;28;20097;-37
2020/12/14 11:23:47;;;;;;;7.60;3.00;;;;;;;26.55;27.79;96215.81;4957334;28;20054;-37
2020/12/14 11:26:13;;;;;;;9.85;3.60;;;;;;;26.57;27.93;96214.75;4955277;28;20039;-34
2020/12/14 11:28:39;;;;;;;7.18;3.10;;;;;;;26.61;27.40;96216.25;4962026;28;20057;-34
2020/12/14 11:31:06;;;;;;;6.80;3.10;;;;;;;26.64;27.86;96209.09;4959391;28;20045;-34